createdAt,value
2022-10-12T00:02:23.787Z,12.96
2022-10-12T00:04:50.409Z,12.99
2022-10-12T00:07:20.250Z,13.00
2022-10-12T00:09:46.852Z,13.00
2022-10-12T00:12:13.457Z,12.96
2022-10-12T00:14:40.100Z,12.87
2022-10-12T00:17:06.798Z,12.86
2022-10-12T00:19:33.614Z,12.81
2022-10-12T00:22:00.321Z,12.82
2022-10-12T00:24:26.951Z,12.81
2022-10-12T00:26:53.612Z,12.76
2022-10-12T00:29:20.235Z,12.78
2022-10-12T00:31:46.893Z,12.72
2022-10-12T00:34:13.605Z,12.68
2022-10-12T00:36:40.592Z,12.67
2022-10-12T00:39:09.128Z,12.63
2022-10-12T00:41:42.464Z,12.62
2022-10-12T00:44:40.269Z,12.56
2022-10-12T00:47:22.643Z,12.53
2022-10-12T00:49:58.003Z,12.54
2022-10-12T00:52:31.948Z,12.57
2022-10-12T00:54:59.392Z,12.54
2022-10-12T00:57:26.379Z,12.52
2022-10-12T00:59:59.640Z,12.51
2022-10-12T01:02:29.649Z,12.44
2022-10-12T01:04:56.804Z,12.39
2022-10-12T01:07:23.438Z,12.29
2022-10-12T01:09:50.061Z,12.16
2022-10-12T01:12:17.356Z,12.10
2022-10-12T01:14:43.971Z,12.10
2022-10-12T01:17:23.077Z,12.12
2022-10-12T01:20:01.947Z,12.12
2022-10-12T01:22:36.381Z,12.14
2022-10-12T01:25:13.131Z,12.13
2022-10-12T01:27:55.416Z,12.12
2022-10-12T01:30:26.650Z,12.11
2022-10-12T01:33:24.534Z,12.11
2022-10-12T01:36:12.195Z,12.17
2022-10-12T01:38:59.624Z,12.22
2022-10-12T01:41:39.033Z,12.27
2022-10-12T01:44:08.170Z,12.33
2022-10-12T01:46:43.886Z,12.38
2022-10-12T01:49:11.958Z,12.39
2022-10-12T01:51:44.500Z,12.42
2022-10-12T01:54:36.250Z,12.47
2022-10-12T01:57:05.515Z,12.44
2022-10-12T01:59:46.925Z,12.40
2022-10-12T02:02:29.977Z,12.40
2022-10-12T02:05:00.316Z,12.34
2022-10-12T02:07:35.022Z,12.30
2022-10-12T02:10:05.272Z,12.35
2022-10-12T02:12:34.167Z,12.41
2022-10-12T02:15:03.971Z,12.39
2022-10-12T02:17:32.612Z,12.34
2022-10-12T02:20:00.609Z,12.31
2022-10-12T02:22:34.155Z,12.34
2022-10-12T02:25:04.316Z,12.32
2022-10-12T02:27:32.955Z,12.27
2022-10-12T02:29:59.709Z,12.23
2022-10-12T02:32:44.464Z,12.23
2022-10-12T02:35:23.492Z,12.16
2022-10-12T02:37:56.611Z,12.16
2022-10-12T02:40:32.157Z,12.15
2022-10-12T02:43:17.469Z,12.15
2022-10-12T02:45:48.207Z,12.06
2022-10-12T02:48:24.312Z,12.01
2022-10-12T02:50:56.792Z,11.89
2022-10-12T02:53:24.783Z,11.84
2022-10-12T02:56:01.254Z,11.85
2022-10-12T02:58:27.926Z,11.83
2022-10-12T03:00:54.535Z,11.82
2022-10-12T03:03:21.200Z,11.85
2022-10-12T03:05:47.812Z,11.84
2022-10-12T03:08:14.398Z,11.85
2022-10-12T03:10:41.044Z,11.89
2022-10-12T03:13:07.819Z,11.91
2022-10-12T03:15:34.432Z,11.93
2022-10-12T03:18:01.124Z,11.94
2022-10-12T03:20:27.818Z,11.98
2022-10-12T03:22:54.431Z,11.89
2022-10-12T03:25:21.028Z,11.86
2022-10-12T03:27:47.745Z,11.83
2022-10-12T03:30:15.102Z,11.80
2022-10-12T03:32:41.757Z,11.78
2022-10-12T03:35:09.030Z,11.79
2022-10-12T03:37:36.362Z,11.81
2022-10-12T03:40:03.721Z,11.79
2022-10-12T03:42:30.299Z,11.77
2022-10-12T03:44:56.952Z,11.71
2022-10-12T03:47:23.599Z,11.68
2022-10-12T03:49:50.335Z,11.64
2022-10-12T03:52:16.978Z,11.58
2022-10-12T03:54:43.628Z,11.58
2022-10-12T03:57:10.246Z,11.58
2022-10-12T03:59:36.904Z,11.59
2022-10-12T04:02:03.568Z,11.58
2022-10-12T04:04:30.139Z,11.58
2022-10-12T04:06:56.725Z,11.59
2022-10-12T04:09:23.495Z,11.61
2022-10-12T04:11:50.102Z,11.62
2022-10-12T04:14:16.748Z,11.60
2022-10-12T04:16:43.351Z,11.65
2022-10-12T04:19:13.982Z,11.66
2022-10-12T04:21:40.897Z,11.63
2022-10-12T04:24:07.710Z,11.72
2022-10-12T04:26:34.410Z,11.72
2022-10-12T04:29:01.091Z,11.66
2022-10-12T04:31:27.712Z,11.67
2022-10-12T04:33:57.033Z,11.64
2022-10-12T04:36:24.895Z,11.65
2022-10-12T04:38:51.643Z,11.60
2022-10-12T04:41:18.392Z,11.56
2022-10-12T04:43:44.959Z,11.57
2022-10-12T04:46:12.019Z,11.55
2022-10-12T04:48:38.685Z,11.59
2022-10-12T04:51:06.189Z,11.64
2022-10-12T04:53:32.900Z,11.56
2022-10-12T04:56:03.302Z,11.42
2022-10-12T04:58:30.079Z,11.44
2022-10-12T05:00:56.744Z,11.39
2022-10-12T05:03:23.751Z,11.42
2022-10-12T05:05:50.494Z,11.39
2022-10-12T05:08:17.251Z,11.33
2022-10-12T05:10:43.949Z,11.32
2022-10-12T05:13:10.581Z,11.26
2022-10-12T05:15:37.148Z,11.29
2022-10-12T05:18:04.016Z,11.27
2022-10-12T05:20:30.654Z,11.28
2022-10-12T05:22:58.253Z,11.27
2022-10-12T05:25:25.264Z,11.25
2022-10-12T05:27:51.868Z,11.24
2022-10-12T05:30:18.666Z,11.19
2022-10-12T05:32:45.357Z,11.16
2022-10-12T05:35:11.982Z,11.15
2022-10-12T05:37:39.118Z,11.19
2022-10-12T05:40:07.367Z,11.16
2022-10-12T05:42:35.585Z,11.23
2022-10-12T05:45:02.977Z,11.29
2022-10-12T05:47:29.636Z,11.42
2022-10-12T05:49:56.587Z,11.56
2022-10-12T05:52:23.233Z,11.71
2022-10-12T05:54:49.852Z,11.86
2022-10-12T05:57:16.856Z,12.02
2022-10-12T05:59:43.485Z,12.06
2022-10-12T06:02:14.618Z,12.10
2022-10-12T06:04:41.705Z,12.17
2022-10-12T06:07:08.372Z,12.30
2022-10-12T06:09:35.720Z,12.34
2022-10-12T06:12:02.361Z,12.37
2022-10-12T06:14:28.970Z,12.41
2022-10-12T06:16:55.591Z,12.51
2022-10-12T06:19:22.351Z,12.59
2022-10-12T06:21:49.060Z,12.60
2022-10-12T06:24:15.709Z,12.65
2022-10-12T06:26:42.371Z,12.69
2022-10-12T06:29:09.065Z,12.72
2022-10-12T06:31:35.687Z,12.83
2022-10-12T06:34:02.300Z,12.85
2022-10-12T06:36:29.033Z,12.82
2022-10-12T06:38:56.133Z,12.81
2022-10-12T06:41:22.723Z,12.80
2022-10-12T06:43:49.341Z,12.87
2022-10-12T06:46:15.947Z,12.99
2022-10-12T06:48:42.581Z,13.05
2022-10-12T06:51:09.206Z,13.11
2022-10-12T06:53:36.622Z,13.08
2022-10-12T06:56:10.961Z,13.12
2022-10-12T06:58:38.494Z,13.12
2022-10-12T07:01:07.452Z,13.23
2022-10-12T07:03:34.483Z,13.32
2022-10-12T07:06:12.659Z,13.35
2022-10-12T07:08:41.183Z,13.40
2022-10-12T07:11:10.150Z,13.36
2022-10-12T07:13:37.092Z,13.56
2022-10-12T07:16:03.882Z,13.78
2022-10-12T07:18:30.552Z,13.93
2022-10-12T07:20:59.722Z,14.11
2022-10-12T07:23:27.398Z,14.14
2022-10-12T07:25:54.296Z,14.23
2022-10-12T07:28:22.035Z,14.21
2022-10-12T07:30:48.723Z,14.34
2022-10-12T07:33:15.696Z,14.45
2022-10-12T07:36:03.341Z,14.45
2022-10-12T07:38:29.731Z,14.51
2022-10-12T07:41:03.794Z,14.51
2022-10-12T07:43:31.841Z,14.54
2022-10-12T07:45:58.482Z,14.60
2022-10-12T07:48:25.149Z,14.75
2022-10-12T07:50:51.792Z,14.90
2022-10-12T07:53:18.452Z,15.05
2022-10-12T07:55:45.028Z,15.15
2022-10-12T07:58:12.906Z,15.43
2022-10-12T08:00:39.798Z,15.60
2022-10-12T08:03:06.522Z,15.68
2022-10-12T08:05:33.114Z,15.77
2022-10-12T08:08:00.222Z,15.90
2022-10-12T08:10:27.163Z,16.08
2022-10-12T08:12:53.823Z,16.11
2022-10-12T08:15:20.512Z,16.22
2022-10-12T08:17:47.303Z,16.28
2022-10-12T08:20:13.918Z,16.44
2022-10-12T08:22:40.682Z,16.52
2022-10-12T08:25:07.830Z,16.52
2022-10-12T08:27:35.779Z,16.43
2022-10-12T08:30:26.696Z,16.60
2022-10-12T08:32:53.619Z,16.60
2022-10-12T08:35:20.244Z,16.69
2022-10-12T08:37:46.988Z,16.53
2022-10-12T08:40:18.745Z,16.64
2022-10-12T08:42:59.881Z,16.65
2022-10-12T08:45:35.804Z,16.74
2022-10-12T08:48:12.243Z,16.65
2022-10-12T08:50:49.357Z,16.58
2022-10-12T08:53:27.433Z,16.59
2022-10-12T08:55:56.406Z,16.58
2022-10-12T08:58:31.311Z,16.45
2022-10-12T09:01:16.466Z,16.64
2022-10-12T09:03:53.561Z,16.71
2022-10-12T09:06:23.979Z,16.76
2022-10-12T09:08:56.540Z,16.88
2022-10-12T09:11:52.439Z,16.85
2022-10-12T09:14:30.530Z,16.76
2022-10-12T09:16:57.974Z,16.88
2022-10-12T09:19:42.605Z,17.02
2022-10-12T09:22:19.117Z,17.08
2022-10-12T09:24:49.007Z,17.18
2022-10-12T09:27:20.238Z,17.26
2022-10-12T09:29:51.297Z,17.28
2022-10-12T09:32:20.988Z,17.39
2022-10-12T09:34:49.050Z,17.41
2022-10-12T09:37:21.615Z,17.34
2022-10-12T09:39:48.938Z,17.35
2022-10-12T09:42:15.865Z,17.44
2022-10-12T09:44:48.970Z,17.45
2022-10-12T09:47:23.339Z,17.39
2022-10-12T09:49:51.803Z,17.51
2022-10-12T09:52:24.620Z,17.60
2022-10-12T09:55:21.639Z,17.52
2022-10-12T09:58:00.588Z,17.63
2022-10-12T10:00:31.395Z,17.58
2022-10-12T10:02:58.950Z,17.63
2022-10-12T10:05:25.752Z,17.56
2022-10-12T10:07:53.032Z,17.64
2022-10-12T10:10:28.462Z,17.87
2022-10-12T10:12:59.002Z,18.15
2022-10-12T10:15:29.331Z,18.46
2022-10-12T10:17:59.661Z,18.63
2022-10-12T10:20:30.310Z,18.77
2022-10-12T10:22:59.045Z,18.97
2022-10-12T10:25:26.732Z,19.04
2022-10-12T10:28:24.459Z,19.15
2022-10-12T10:30:59.767Z,19.18
2022-10-12T10:33:27.013Z,19.17
2022-10-12T10:36:04.227Z,19.21
2022-10-12T10:38:44.800Z,19.32
2022-10-12T10:41:17.974Z,19.37
2022-10-12T10:43:49.147Z,19.33
2022-10-12T10:46:23.015Z,19.62
2022-10-12T10:48:58.827Z,19.93
2022-10-12T10:51:40.860Z,20.35
2022-10-12T10:54:37.973Z,20.56
2022-10-12T10:57:12.341Z,20.85
2022-10-12T11:00:02.248Z,21.12
2022-10-12T11:03:16.909Z,21.27
2022-10-12T11:05:51.795Z,21.39
2022-10-12T11:08:30.653Z,21.48
2022-10-12T11:11:03.805Z,21.67
2022-10-12T11:13:41.403Z,21.66
2022-10-12T11:16:38.078Z,21.50
2022-10-12T11:19:28.645Z,21.43
2022-10-12T11:22:03.440Z,21.14
2022-10-12T11:24:40.380Z,20.93
2022-10-12T11:27:28.310Z,21.01
2022-10-12T11:30:09.784Z,21.21
2022-10-12T11:32:42.247Z,21.35
2022-10-12T11:35:25.179Z,21.10
2022-10-12T11:37:59.275Z,21.15
2022-10-12T11:43:36.538Z,21.41
2022-10-12T11:46:08.165Z,21.24
2022-10-12T11:48:57.013Z,20.86
2022-10-12T11:51:23.669Z,20.69
2022-10-12T11:54:00.947Z,20.48
2022-10-12T11:56:43.447Z,20.33
2022-10-12T12:00:02.598Z,20.15
2022-10-12T12:02:44.390Z,19.95
2022-10-12T12:05:16.433Z,20.03
2022-10-12T12:08:20.639Z,20.12
2022-10-12T12:11:03.085Z,20.18
2022-10-12T12:13:30.221Z,20.19
2022-10-12T12:15:56.768Z,20.30
2022-10-12T12:18:29.605Z,20.42
2022-10-12T12:21:06.605Z,20.37
2022-10-12T12:23:39.786Z,20.43
2022-10-12T12:26:14.701Z,20.51
2022-10-12T12:28:52.406Z,20.69
2022-10-12T12:31:22.239Z,20.76
2022-10-12T12:34:00.558Z,20.91
2022-10-12T12:36:34.678Z,21.14
2022-10-12T12:39:03.443Z,21.30
2022-10-12T12:41:57.702Z,21.51
2022-10-12T12:44:43.931Z,21.50
2022-10-12T12:50:00.618Z,21.79
2022-10-12T12:52:31.678Z,21.85
2022-10-12T12:55:36.212Z,21.90
2022-10-12T12:58:34.575Z,22.04
2022-10-12T13:01:32.804Z,22.33
2022-10-12T13:04:05.561Z,22.36
2022-10-12T13:06:47.285Z,21.94
2022-10-12T13:09:21.130Z,21.79
2022-10-12T13:11:47.793Z,21.86
2022-10-12T13:14:32.463Z,21.94
2022-10-12T13:19:48.931Z,21.82
2022-10-12T13:22:42.072Z,21.78
2022-10-12T13:25:18.005Z,21.85
2022-10-12T13:27:53.397Z,21.76
2022-10-12T13:30:32.492Z,22.03
2022-10-12T13:33:12.068Z,22.29
2022-10-12T13:36:05.589Z,22.04
2022-10-12T13:38:35.233Z,22.09
2022-10-12T13:41:13.762Z,21.86
2022-10-12T13:43:53.765Z,21.53
2022-10-12T13:46:44.588Z,21.31
2022-10-12T13:49:16.235Z,21.16
2022-10-12T13:51:47.706Z,21.12
2022-10-12T13:54:26.738Z,20.91
2022-10-12T13:56:59.955Z,20.82
2022-10-12T13:59:30.924Z,20.85
2022-10-12T14:02:01.020Z,20.92
2022-10-12T14:04:33.620Z,20.95
2022-10-12T14:07:08.277Z,20.95
2022-10-12T14:09:48.666Z,20.95
2022-10-12T14:12:15.829Z,20.92
2022-10-12T14:14:45.910Z,21.03
2022-10-12T14:17:20.687Z,21.04
2022-10-12T14:19:51.299Z,21.07
2022-10-12T14:22:25.315Z,21.04
2022-10-12T14:25:16.298Z,21.09
2022-10-12T14:27:43.531Z,21.22
2022-10-12T14:30:21.192Z,21.32
2022-10-12T14:32:48.982Z,21.48
2022-10-12T14:35:18.455Z,21.56
2022-10-12T14:37:46.399Z,21.53
2022-10-12T14:40:39.259Z,21.52
2022-10-12T14:43:10.362Z,21.21
2022-10-12T14:45:37.020Z,20.92
2022-10-12T14:48:05.530Z,20.86
2022-10-12T14:50:32.768Z,20.75
2022-10-12T14:53:03.953Z,20.60
2022-10-12T14:55:33.253Z,20.59
2022-10-12T14:58:00.528Z,20.61
2022-10-12T15:00:33.128Z,20.56
2022-10-12T15:03:00.370Z,20.70
2022-10-12T15:05:29.059Z,20.65
2022-10-12T15:07:55.679Z,20.71
2022-10-12T15:10:23.704Z,20.59
2022-10-12T15:12:51.185Z,20.51
2022-10-12T15:15:39.585Z,20.44
2022-10-12T15:18:06.619Z,20.33
2022-10-12T15:20:33.540Z,20.38
2022-10-12T15:23:01.304Z,20.21
2022-10-12T15:25:49.548Z,20.11
2022-10-12T15:28:16.235Z,20.11
2022-10-12T15:31:11.848Z,20.16
2022-10-12T15:33:30.262Z,20.21
2022-10-12T15:35:57.060Z,20.26
2022-10-12T15:38:23.737Z,20.32
2022-10-12T15:40:53.461Z,20.37
2022-10-12T15:43:20.487Z,20.39
2022-10-12T15:45:47.192Z,20.38
2022-10-12T15:48:13.798Z,20.16
2022-10-12T15:50:44.000Z,19.95
2022-10-12T15:53:20.839Z,19.98
2022-10-12T15:55:47.717Z,19.89
2022-10-12T15:58:14.611Z,19.82
2022-10-12T16:00:41.541Z,19.65
2022-10-12T16:03:15.185Z,19.56
2022-10-12T16:05:42.077Z,19.44
2022-10-12T16:08:08.726Z,19.38
2022-10-12T16:10:39.178Z,19.33
2022-10-12T16:13:07.813Z,19.34
2022-10-12T16:15:35.478Z,19.18
2022-10-12T16:18:03.492Z,19.17
2022-10-12T16:20:32.632Z,19.10
2022-10-12T16:23:00.341Z,19.03
2022-10-12T16:25:27.690Z,18.98
2022-10-12T16:27:57.011Z,18.98
2022-10-12T16:30:25.261Z,18.99
2022-10-12T16:32:52.812Z,18.93
2022-10-12T16:35:19.653Z,18.84
2022-10-12T16:37:46.300Z,18.78
2022-10-12T16:40:13.086Z,18.74
2022-10-12T16:42:39.937Z,18.67
2022-10-12T16:45:07.511Z,18.52
2022-10-12T16:47:37.713Z,18.40
2022-10-12T16:50:07.690Z,18.29
2022-10-12T16:52:34.427Z,18.20
2022-10-12T16:55:01.247Z,18.08
2022-10-12T16:57:27.984Z,17.96
2022-10-12T16:59:54.699Z,17.93
2022-10-12T17:02:21.486Z,17.83
2022-10-12T17:04:48.177Z,17.71
2022-10-12T17:07:14.922Z,17.69
2022-10-12T17:09:41.619Z,17.57
2022-10-12T17:12:08.572Z,17.43
2022-10-12T17:14:35.558Z,17.32
2022-10-12T17:17:02.159Z,17.26
2022-10-12T17:19:32.202Z,17.17
2022-10-12T17:22:00.861Z,17.13
2022-10-12T17:24:29.374Z,17.12
2022-10-12T17:26:56.535Z,17.08
2022-10-12T17:29:25.417Z,16.99
2022-10-12T17:31:53.427Z,16.92
2022-10-12T17:34:24.243Z,16.71
2022-10-12T17:36:52.605Z,16.66
2022-10-12T17:39:19.886Z,16.61
2022-10-12T17:41:47.251Z,16.62
2022-10-12T17:44:14.481Z,16.62
2022-10-12T17:46:43.143Z,16.55
2022-10-12T17:49:14.656Z,16.51
2022-10-12T17:51:42.461Z,16.60
2022-10-12T17:54:10.029Z,16.52
2022-10-12T17:56:36.806Z,16.42
2022-10-12T17:59:04.340Z,16.31
2022-10-12T18:01:32.170Z,16.22
2022-10-12T18:04:00.753Z,16.14
2022-10-12T18:06:28.944Z,16.03
2022-10-12T18:08:56.649Z,16.01
2022-10-12T18:11:24.273Z,15.96
2022-10-12T18:13:54.374Z,15.92
2022-10-12T18:16:23.925Z,15.91
2022-10-12T18:18:52.507Z,15.97
2022-10-12T18:21:26.476Z,15.94
2022-10-12T18:23:54.003Z,15.93
2022-10-12T18:26:22.173Z,15.90
2022-10-12T18:28:50.675Z,15.84
2022-10-12T18:31:23.163Z,15.75
2022-10-12T18:33:50.644Z,15.79
2022-10-12T18:36:17.969Z,15.74
2022-10-12T18:38:45.122Z,15.75
2022-10-12T18:41:15.351Z,15.70
2022-10-12T18:43:42.095Z,15.68
2022-10-12T18:46:11.242Z,15.55
2022-10-12T18:48:38.007Z,15.47
2022-10-12T18:51:21.990Z,15.53
2022-10-12T18:53:49.050Z,15.46
2022-10-12T18:56:16.399Z,15.35
2022-10-12T18:58:43.453Z,15.26
2022-10-12T19:01:22.641Z,15.23
2022-10-12T19:03:50.022Z,15.24
2022-10-12T19:06:19.546Z,15.29
2022-10-12T19:08:48.048Z,15.29
2022-10-12T19:11:17.539Z,15.25
2022-10-12T19:13:44.940Z,15.26
2022-10-12T19:16:14.973Z,15.22
2022-10-12T19:18:42.041Z,15.20
2022-10-12T19:21:11.606Z,15.24
2022-10-12T19:23:38.735Z,15.29
2022-10-12T19:26:15.087Z,15.31
2022-10-12T19:28:41.871Z,15.29
2022-10-12T19:31:14.554Z,15.37
2022-10-12T19:33:42.174Z,15.32
2022-10-12T19:36:11.045Z,15.29
2022-10-12T19:38:38.277Z,15.30
2022-10-12T19:41:05.466Z,15.38
2022-10-12T19:43:34.058Z,15.48
2022-10-12T19:46:05.692Z,15.53
2022-10-12T19:48:32.588Z,15.62
2022-10-12T19:51:10.960Z,15.55
2022-10-12T19:53:39.215Z,15.50
2022-10-12T19:56:11.821Z,15.36
2022-10-12T19:58:38.426Z,15.29
2022-10-12T20:01:08.465Z,15.20
2022-10-12T20:03:35.956Z,15.19
2022-10-12T20:06:07.752Z,15.22
2022-10-12T20:08:35.653Z,15.30
2022-10-12T20:11:02.726Z,15.31
2022-10-12T20:13:30.373Z,15.30
2022-10-12T20:15:57.433Z,15.28
2022-10-12T20:18:24.544Z,15.32
2022-10-12T20:20:51.738Z,15.31
2022-10-12T20:23:18.382Z,15.30
2022-10-12T20:25:50.547Z,15.31
2022-10-12T20:28:17.405Z,15.20
2022-10-12T20:30:44.322Z,15.11
2022-10-12T20:33:11.010Z,14.92
2022-10-12T20:35:37.718Z,14.83
2022-10-12T20:38:04.527Z,14.76
2022-10-12T20:40:31.197Z,14.76
2022-10-12T20:42:57.851Z,14.68
2022-10-12T20:45:25.358Z,14.59
2022-10-12T20:47:51.995Z,14.55
2022-10-12T20:50:18.696Z,14.51
2022-10-12T20:52:47.061Z,14.48
2022-10-12T20:55:14.054Z,14.42
2022-10-12T20:57:40.873Z,14.44
2022-10-12T21:00:08.049Z,14.43
2022-10-12T21:02:34.687Z,14.42
2022-10-12T21:05:01.326Z,14.40
2022-10-12T21:07:28.037Z,14.36
2022-10-12T21:09:54.621Z,14.32
2022-10-12T21:12:21.539Z,14.30
2022-10-12T21:14:48.676Z,14.31
2022-10-12T21:17:15.441Z,14.33
2022-10-12T21:19:42.099Z,14.38
2022-10-12T21:22:08.704Z,14.38
2022-10-12T21:24:35.332Z,14.44
2022-10-12T21:27:02.103Z,14.45
2022-10-12T21:29:28.759Z,14.48
2022-10-12T21:31:55.640Z,14.49
2022-10-12T21:34:22.466Z,14.50
2022-10-12T21:36:49.249Z,14.46
2022-10-12T21:39:16.983Z,14.43
2022-10-12T21:41:44.012Z,14.35
2022-10-12T21:44:11.284Z,14.31
2022-10-12T21:46:38.149Z,14.32
2022-10-12T21:49:07.875Z,14.26
2022-10-12T21:51:36.619Z,14.18
2022-10-12T21:54:06.954Z,14.12
2022-10-12T21:56:35.642Z,14.15
2022-10-12T21:59:04.308Z,14.14
2022-10-12T22:01:37.377Z,14.14
2022-10-12T22:04:07.349Z,14.15
2022-10-12T22:06:34.842Z,14.11
2022-10-12T22:09:05.435Z,14.05
2022-10-12T22:11:34.076Z,14.00
2022-10-12T22:14:04.013Z,13.97
2022-10-12T22:16:31.217Z,13.87
2022-10-12T22:19:02.079Z,13.83
2022-10-12T22:21:32.984Z,13.84
2022-10-12T22:24:00.477Z,13.77
2022-10-12T22:26:27.769Z,13.74
2022-10-12T22:28:55.905Z,13.72
2022-10-12T22:31:24.647Z,13.67
2022-10-12T22:33:52.460Z,13.59
2022-10-12T22:36:19.284Z,13.63
2022-10-12T22:38:46.571Z,13.65
2022-10-12T22:41:15.517Z,13.71
2022-10-12T22:43:47.042Z,13.76
2022-10-12T22:46:14.163Z,13.78
2022-10-12T22:48:40.827Z,13.77
2022-10-12T22:51:11.581Z,13.73
2022-10-12T22:53:38.225Z,13.76
2022-10-12T22:56:13.857Z,13.72
2022-10-12T22:58:40.528Z,13.74
2022-10-12T23:01:10.424Z,13.72
2022-10-12T23:03:38.064Z,13.74
2022-10-12T23:06:15.870Z,13.73
2022-10-12T23:08:43.504Z,13.68
2022-10-12T23:11:16.139Z,13.68
2022-10-12T23:13:43.596Z,13.69
2022-10-12T23:16:18.557Z,13.73
2022-10-12T23:18:45.626Z,13.79
2022-10-12T23:21:17.490Z,13.88
2022-10-12T23:23:45.493Z,13.85
2022-10-12T23:26:15.098Z,13.92
2022-10-12T23:28:42.223Z,13.97
2022-10-12T23:31:17.113Z,14.04
2022-10-12T23:33:44.485Z,14.07
2022-10-12T23:36:14.263Z,14.12
2022-10-12T23:38:42.103Z,14.16
2022-10-12T23:41:09.736Z,14.21
2022-10-12T23:43:36.730Z,14.29
2022-10-12T23:46:05.051Z,14.36
2022-10-12T23:48:32.427Z,14.40
2022-10-12T23:50:59.632Z,14.50
2022-10-12T23:53:26.998Z,14.55
2022-10-12T23:55:54.384Z,14.54
2022-10-12T23:58:21.322Z,14.50
